sensor_id;sensor_type;location;lat;lon;timestamp;pressure;altitude;pressure_sealevel;temperature;humidity
20015;BME280;61787;42.022;23.078;2023-07-02T00:00:44;96130.78;;;19.59;100.00
20015;BME280;61787;42.022;23.078;2023-07-02T00:01:46;96128.78;;;19.63;100.00
20015;BME280;61787;42.022;23.078;2023-07-02T00:02:48;96112.06;;;19.65;100.00
20015;BME280;61787;42.022;23.078;2023-07-02T00:03:49;96113.66;;;19.62;100.00
20015;BME280;61787;42.022;23.078;2023-07-02T00:04:51;96116.81;;;19.57;100.00
20015;BME280;61787;42.022;23.078;2023-07-02T00:05:53;96112.66;;;19.49;100.00
20015;BME280;61787;42.022;23.078;2023-07-02T00:06:56;96108.44;;;19.41;100.00
20015;BME280;61787;42.022;23.078;2023-07-02T00:07:58;96117.88;;;19.33;100.00
20015;BME280;61787;42.022;23.078;2023-07-02T00:08:59;96120.59;;;19.33;100.00
20015;BME280;61787;42.022;23.078;2023-07-02T00:10:02;96123.31;;;19.33;100.00
20015;BME280;61787;42.022;23.078;2023-07-02T00:11:03;96110.84;;;19.35;100.00
20015;BME280;61787;42.022;23.078;2023-07-02T00:12:05;96122.47;;;19.36;100.00
20015;BME280;61787;42.022;23.078;2023-07-02T00:13:07;96123.31;;;19.29;100.00
20015;BME280;61787;42.022;23.078;2023-07-02T00:14:10;96122.66;;;19.22;100.00
20015;BME280;61787;42.022;23.078;2023-07-02T00:15:11;96121.94;;;19.17;100.00
20015;BME280;61787;42.022;23.078;2023-07-02T00:16:13;96118.75;;;19.23;100.00
20015;BME280;61787;42.022;23.078;2023-07-02T00:17:15;96113.69;;;19.25;100.00
20015;BME280;61787;42.022;23.078;2023-07-02T00:18:16;96109.41;;;19.24;100.00
20015;BME280;61787;42.022;23.078;2023-07-02T00:19:18;96114.09;;;19.23;100.00
20015;BME280;61787;42.022;23.078;2023-07-02T00:20:20;96111.72;;;19.25;100.00
20015;BME280;61787;42.022;23.078;2023-07-02T00:21:22;96105.53;;;19.25;100.00
20015;BME280;61787;42.022;23.078;2023-07-02T00:22:23;96106.34;;;19.22;100.00
20015;BME280;61787;42.022;23.078;2023-07-02T00:23:25;96116.50;;;19.17;100.00
20015;BME280;61787;42.022;23.078;2023-07-02T00:24:27;96121.94;;;19.17;100.00
20015;BME280;61787;42.022;23.078;2023-07-02T00:25:28;96132.88;;;19.10;100.00
20015;BME280;61787;42.022;23.078;2023-07-02T00:26:30;96132.81;;;19.14;100.00
20015;BME280;61787;42.022;23.078;2023-07-02T00:27:31;96131.25;;;19.16;100.00
20015;BME280;61787;42.022;23.078;2023-07-02T00:28:33;96135.88;;;19.20;100.00
20015;BME280;61787;42.022;23.078;2023-07-02T00:29:35;96139.41;;;19.16;100.00
20015;BME280;61787;42.022;23.078;2023-07-02T00:30:36;96131.28;;;19.13;100.00
20015;BME280;61787;42.022;23.078;2023-07-02T00:31:38;96134.03;;;19.09;100.00
20015;BME280;61787;42.022;23.078;2023-07-02T00:32:40;96133.69;;;19.07;100.00
20015;BME280;61787;42.022;23.078;2023-07-02T00:33:41;96134.19;;;18.95;100.00
20015;BME280;61787;42.022;23.078;2023-07-02T00:34:43;96129.25;;;18.83;100.00
20015;BME280;61787;42.022;23.078;2023-07-02T00:35:45;96126.66;;;18.69;100.00
20015;BME280;61787;42.022;23.078;2023-07-02T00:36:46;96121.31;;;18.62;100.00
20015;BME280;61787;42.022;23.078;2023-07-02T00:37:49;96132.19;;;18.58;100.00
20015;BME280;61787;42.022;23.078;2023-07-02T00:38:50;96124.09;;;18.55;100.00
20015;BME280;61787;42.022;23.078;2023-07-02T00:39:52;96134.94;;;18.55;100.00
20015;BME280;61787;42.022;23.078;2023-07-02T00:40:54;96136.88;;;18.54;100.00
20015;BME280;61787;42.022;23.078;2023-07-02T00:42:01;96140.38;;;18.55;100.00
20015;BME280;61787;42.022;23.078;2023-07-02T00:43:04;96145.81;;;18.55;100.00
20015;BME280;61787;42.022;23.078;2023-07-02T00:44:06;96145.00;;;18.58;100.00
20015;BME280;61787;42.022;23.078;2023-07-02T00:45:08;96151.97;;;18.59;100.00
20015;BME280;61787;42.022;23.078;2023-07-02T00:46:20;96151.97;;;18.59;100.00
20015;BME280;61787;42.022;23.078;2023-07-02T00:47:21;96159.78;;;18.57;100.00
20015;BME280;61787;42.022;23.078;2023-07-02T00:48:23;96163.63;;;18.59;100.00
20015;BME280;61787;42.022;23.078;2023-07-02T00:49:25;96155.84;;;18.61;100.00
20015;BME280;61787;42.022;23.078;2023-07-02T00:50:27;96148.88;;;18.60;100.00
20015;BME280;61787;42.022;23.078;2023-07-02T00:51:29;96149.63;;;18.61;100.00
20015;BME280;61787;42.022;23.078;2023-07-02T00:52:30;96151.97;;;18.59;100.00
20015;BME280;61787;42.022;23.078;2023-07-02T00:53:32;96150.50;;;18.44;100.00
20015;BME280;61787;42.022;23.078;2023-07-02T00:54:34;96150.19;;;18.35;100.00
20015;BME280;61787;42.022;23.078;2023-07-02T00:55:37;96151.41;;;18.26;100.00
20015;BME280;61787;42.022;23.078;2023-07-02T00:56:39;96149.88;;;18.22;100.00
20015;BME280;61787;42.022;23.078;2023-07-02T00:57:40;96149.94;;;18.18;100.00
20015;BME280;61787;42.022;23.078;2023-07-02T00:58:44;96145.31;;;18.15;100.00
20015;BME280;61787;42.022;23.078;2023-07-02T00:59:52;96136.78;;;18.13;100.00
20015;BME280;61787;42.022;23.078;2023-07-02T01:00:54;96142.97;;;18.14;100.00
20015;BME280;61787;42.022;23.078;2023-07-02T01:01:58;96145.31;;;18.15;100.00
20015;BME280;61787;42.022;23.078;2023-07-02T01:03:00;96147.22;;;18.18;100.00
20015;BME280;61787;42.022;23.078;2023-07-02T01:04:03;96152.22;;;18.23;100.00
20015;BME280;61787;42.022;23.078;2023-07-02T01:05:05;96157.53;;;18.38;100.00
20015;BME280;61787;42.022;23.078;2023-07-02T01:06:07;96171.41;;;18.50;100.00
20015;BME280;61787;42.022;23.078;2023-07-02T01:07:09;96178.34;;;18.58;100.00
20015;BME280;61787;42.022;23.078;2023-07-02T01:08:12;96181.00;;;18.69;100.00
20015;BME280;61787;42.022;23.078;2023-07-02T01:09:14;96186.72;;;18.78;100.00
20015;BME280;61787;42.022;23.078;2023-07-02T01:10:15;96180.91;;;18.80;100.00
20015;BME280;61787;42.022;23.078;2023-07-02T01:11:17;96187.06;;;18.87;100.00
20015;BME280;61787;42.022;23.078;2023-07-02T01:12:19;96183.53;;;18.90;100.00
20015;BME280;61787;42.022;23.078;2023-07-02T01:13:23;96173.72;;;19.00;100.00
20015;BME280;61787;42.022;23.078;2023-07-02T01:14:36;96177.16;;;19.07;100.00
20015;BME280;61787;42.022;23.078;2023-07-02T01:15:39;96177.91;;;19.11;100.00
20015;BME280;61787;42.022;23.078;2023-07-02T01:16:42;96181.78;;;19.10;100.00
20015;BME280;61787;42.022;23.078;2023-07-02T01:17:45;96179.94;;;19.00;100.00
20015;BME280;61787;42.022;23.078;2023-07-02T01:18:49;96185.84;;;18.92;100.00
20015;BME280;61787;42.022;23.078;2023-07-02T01:19:57;96167.22;;;18.90;100.00
20015;BME280;61787;42.022;23.078;2023-07-02T01:21:00;96151.69;;;18.91;100.00
20015;BME280;61787;42.022;23.078;2023-07-02T01:22:03;96145.72;;;18.65;100.00
20015;BME280;61787;42.022;23.078;2023-07-02T01:23:05;96138.91;;;18.40;100.00
20015;BME280;61787;42.022;23.078;2023-07-02T01:24:07;96145.97;;;18.26;100.00
20015;BME280;61787;42.022;23.078;2023-07-02T01:25:08;96156.88;;;18.23;100.00
20015;BME280;61787;42.022;23.078;2023-07-02T01:26:11;96172.75;;;18.24;100.00
20015;BME280;61787;42.022;23.078;2023-07-02T01:27:14;96192.84;;;18.34;100.00
20015;BME280;61787;42.022;23.078;2023-07-02T01:28:16;96210.63;;;18.46;100.00
20015;BME280;61787;42.022;23.078;2023-07-02T01:29:20;96219.13;;;18.55;100.00
20015;BME280;61787;42.022;23.078;2023-07-02T01:30:21;96217.53;;;18.61;100.00
20015;BME280;61787;42.022;23.078;2023-07-02T01:31:23;96217.16;;;18.59;100.00
20015;BME280;61787;42.022;23.078;2023-07-02T01:32:26;96206.66;;;18.61;100.00
20015;BME280;61787;42.022;23.078;2023-07-02T01:33:28;96199.25;;;18.65;100.00
20015;BME280;61787;42.022;23.078;2023-07-02T01:34:30;96196.94;;;18.67;100.00
20015;BME280;61787;42.022;23.078;2023-07-02T01:35:32;96187.53;;;18.75;100.00
20015;BME280;61787;42.022;23.078;2023-07-02T01:36:34;96184.34;;;18.84;100.00
20015;BME280;61787;42.022;23.078;2023-07-02T01:37:35;96189.78;;;18.87;100.00
20015;BME280;61787;42.022;23.078;2023-07-02T01:38:39;96199.09;;;18.83;100.00
20015;BME280;61787;42.022;23.078;2023-07-02T01:39:40;96216.09;;;18.94;100.00
20015;BME280;61787;42.022;23.078;2023-07-02T01:40:42;96228.47;;;18.98;100.00
20015;BME280;61787;42.022;23.078;2023-07-02T01:41:51;96233.91;;;18.98;100.00
20015;BME280;61787;42.022;23.078;2023-07-02T01:42:53;96230.03;;;18.99;100.00
20015;BME280;61787;42.022;23.078;2023-07-02T01:43:55;96233.56;;;18.96;100.00
20015;BME280;61787;42.022;23.078;2023-07-02T01:44:57;96230.53;;;18.87;100.00
20015;BME280;61787;42.022;23.078;2023-07-02T01:45:59;96230.25;;;18.67;100.00
20015;BME280;61787;42.022;23.078;2023-07-02T01:47:03;96229.13;;;18.65;100.00
20015;BME280;61787;42.022;23.078;2023-07-02T01:48:05;96235.69;;;18.71;100.00
20015;BME280;61787;42.022;23.078;2023-07-02T01:49:06;96231.69;;;18.83;100.00
20015;BME280;61787;42.022;23.078;2023-07-02T01:50:08;96240.97;;;18.92;100.00
20015;BME280;61787;42.022;23.078;2023-07-02T01:51:10;96238.56;;;19.01;100.00
20015;BME280;61787;42.022;23.078;2023-07-02T01:52:12;96238.13;;;19.06;100.00
20015;BME280;61787;42.022;23.078;2023-07-02T01:53:13;96245.47;;;19.09;100.00
20015;BME280;61787;42.022;23.078;2023-07-02T01:54:15;96247.34;;;19.16;100.00
20015;BME280;61787;42.022;23.078;2023-07-02T01:55:17;96261.72;;;19.16;100.00
20015;BME280;61787;42.022;23.078;2023-07-02T01:56:19;96254.78;;;19.12;100.00
20015;BME280;61787;42.022;23.078;2023-07-02T01:57:20;96262.16;;;19.11;100.00
20015;BME280;61787;42.022;23.078;2023-07-02T01:58:22;96263.31;;;19.10;100.00
20015;BME280;61787;42.022;23.078;2023-07-02T01:59:24;96252.50;;;19.03;100.00
20015;BME280;61787;42.022;23.078;2023-07-02T02:00:26;96244.03;;;18.98;100.00
20015;BME280;61787;42.022;23.078;2023-07-02T02:01:27;96234.41;;;18.86;100.00
20015;BME280;61787;42.022;23.078;2023-07-02T02:02:29;96232.91;;;18.82;100.00
20015;BME280;61787;42.022;23.078;2023-07-02T02:03:31;96227.13;;;18.72;100.00
20015;BME280;61787;42.022;23.078;2023-07-02T02:04:33;96217.13;;;18.62;100.00
20015;BME280;61787;42.022;23.078;2023-07-02T02:05:34;96220.25;;;18.57;100.00
20015;BME280;61787;42.022;23.078;2023-07-02T02:06:37;96207.16;;;18.42;100.00
20015;BME280;61787;42.022;23.078;2023-07-02T02:07:39;96213.41;;;18.31;100.00
20015;BME280;61787;42.022;23.078;2023-07-02T02:08:41;96228.81;;;18.49;100.00
20015;BME280;61787;42.022;23.078;2023-07-02T02:09:43;96234.94;;;18.67;100.00
20015;BME280;61787;42.022;23.078;2023-07-02T02:10:45;96239.56;;;18.70;100.00
20015;BME280;61787;42.022;23.078;2023-07-02T02:11:50;96236.03;;;18.73;100.00
20015;BME280;61787;42.022;23.078;2023-07-02T02:12:53;96224.78;;;18.74;100.00
20015;BME280;61787;42.022;23.078;2023-07-02T02:13:55;96219.31;;;18.78;100.00
20015;BME280;61787;42.022;23.078;2023-07-02T02:14:57;96206.56;;;18.75;100.00
20015;BME280;61787;42.022;23.078;2023-07-02T02:15:58;96202.31;;;18.70;100.00
20015;BME280;61787;42.022;23.078;2023-07-02T02:17:00;96199.25;;;18.65;100.00
20015;BME280;61787;42.022;23.078;2023-07-02T02:18:02;96200.06;;;18.62;100.00
20015;BME280;61787;42.022;23.078;2023-07-02T02:19:04;96203.63;;;18.52;100.00
20015;BME280;61787;42.022;23.078;2023-07-02T02:20:07;96198.25;;;18.38;100.00
20015;BME280;61787;42.022;23.078;2023-07-02T02:21:10;96191.75;;;18.24;100.00
20015;BME280;61787;42.022;23.078;2023-07-02T02:22:11;96189.06;;;18.24;100.00
20015;BME280;61787;42.022;23.078;2023-07-02T02:23:13;96182.50;;;18.18;100.00
20015;BME280;61787;42.022;23.078;2023-07-02T02:24:14;96179.38;;;18.16;100.00
20015;BME280;61787;42.022;23.078;2023-07-02T02:25:16;96163.91;;;18.13;100.00
20015;BME280;61787;42.022;23.078;2023-07-02T02:26:18;96160.78;;;18.18;100.00
20015;BME280;61787;42.022;23.078;2023-07-02T02:27:19;96164.25;;;18.22;100.00
20015;BME280;61787;42.022;23.078;2023-07-02T02:28:21;96161.88;;;18.28;100.00
20015;BME280;61787;42.022;23.078;2023-07-02T02:29:22;96164.47;;;18.42;100.00
20015;BME280;61787;42.022;23.078;2023-07-02T02:30:24;96160.56;;;18.50;100.00
20015;BME280;61787;42.022;23.078;2023-07-02T02:31:26;96166.75;;;18.51;100.00
20015;BME280;61787;42.022;23.078;2023-07-02T02:32:27;96164.81;;;18.55;100.00
20015;BME280;61787;42.022;23.078;2023-07-02T02:33:29;96157.13;;;18.43;100.00
20015;BME280;61787;42.022;23.078;2023-07-02T02:34:31;96156.75;;;18.41;100.00
20015;BME280;61787;42.022;23.078;2023-07-02T02:35:33;96154.41;;;18.43;100.00
20015;BME280;61787;42.022;23.078;2023-07-02T02:36:34;96152.09;;;18.41;100.00
20015;BME280;61787;42.022;23.078;2023-07-02T02:37:37;96149.00;;;18.39;100.00
20015;BME280;61787;42.022;23.078;2023-07-02T02:38:40;96154.00;;;18.44;100.00
20015;BME280;61787;42.022;23.078;2023-07-02T02:39:41;96153.13;;;18.58;100.00
20015;BME280;61787;42.022;23.078;2023-07-02T02:40:43;96157.28;;;18.73;100.00
20015;BME280;61787;42.022;23.078;2023-07-02T02:41:45;96156.03;;;18.85;100.00
20015;BME280;61787;42.022;23.078;2023-07-02T02:42:46;96165.66;;;18.93;100.00
20015;BME280;61787;42.022;23.078;2023-07-02T02:43:48;96165.69;;;18.89;100.00
20015;BME280;61787;42.022;23.078;2023-07-02T02:44:49;96169.78;;;18.67;100.00
20015;BME280;61787;42.022;23.078;2023-07-02T02:45:51;96165.59;;;18.48;100.00
20015;BME280;61787;42.022;23.078;2023-07-02T02:46:53;96161.41;;;18.40;100.00
20015;BME280;61787;42.022;23.078;2023-07-02T02:47:54;96169.91;;;18.46;100.00
20015;BME280;61787;42.022;23.078;2023-07-02T02:48:56;96167.53;;;18.48;100.00
20015;BME280;61787;42.022;23.078;2023-07-02T02:49:59;96171.81;;;18.49;100.00
20015;BME280;61787;42.022;23.078;2023-07-02T02:51:00;96174.22;;;18.40;100.00
20015;BME280;61787;42.022;23.078;2023-07-02T02:52:02;96177.28;;;18.42;100.00
20015;BME280;61787;42.022;23.078;2023-07-02T02:53:04;96187.78;;;18.40;100.00
20015;BME280;61787;42.022;23.078;2023-07-02T02:54:05;96191.25;;;18.44;100.00
20015;BME280;61787;42.022;23.078;2023-07-02T02:55:09;96198.56;;;18.47;100.00
20015;BME280;61787;42.022;23.078;2023-07-02T02:56:14;96207.09;;;18.49;100.00
20015;BME280;61787;42.022;23.078;2023-07-02T02:57:16;96209.44;;;18.47;100.00
20015;BME280;61787;42.022;23.078;2023-07-02T02:58:17;96211.00;;;18.48;100.00
20015;BME280;61787;42.022;23.078;2023-07-02T02:59:19;96208.66;;;18.50;100.00
20015;BME280;61787;42.022;23.078;2023-07-02T03:00:21;96214.09;;;18.50;100.00
20015;BME280;61787;42.022;23.078;2023-07-02T03:01:22;96222.63;;;18.55;100.00
20015;BME280;61787;42.022;23.078;2023-07-02T03:02:24;96227.28;;;18.55;100.00
20015;BME280;61787;42.022;23.078;2023-07-02T03:03:26;96232.31;;;18.49;100.00
20015;BME280;61787;42.022;23.078;2023-07-02T03:04:28;96230.78;;;18.45;100.00
20015;BME280;61787;42.022;23.078;2023-07-02T03:05:30;96229.22;;;18.51;100.00
20015;BME280;61787;42.022;23.078;2023-07-02T03:06:32;96217.94;;;18.52;100.00
20015;BME280;61787;42.022;23.078;2023-07-02T03:07:33;96202.06;;;18.51;100.00
20015;BME280;61787;42.022;23.078;2023-07-02T03:08:35;96199.78;;;18.46;100.00
20015;BME280;61787;42.022;23.078;2023-07-02T03:09:37;96176.53;;;18.38;100.00
20015;BME280;61787;42.022;23.078;2023-07-02T03:10:38;96166.91;;;18.29;100.00
20015;BME280;61787;42.022;23.078;2023-07-02T03:11:40;96162.41;;;18.09;100.00
20015;BME280;61787;42.022;23.078;2023-07-02T03:12:42;96159.38;;;17.93;100.00
20015;BME280;61787;42.022;23.078;2023-07-02T03:13:43;96165.63;;;17.86;100.00
20015;BME280;61787;42.022;23.078;2023-07-02T03:14:45;96175.69;;;17.89;100.00
20015;BME280;61787;42.022;23.078;2023-07-02T03:15:48;96187.28;;;17.93;100.00
20015;BME280;61787;42.022;23.078;2023-07-02T03:16:50;96190.72;;;18.04;100.00
20015;BME280;61787;42.022;23.078;2023-07-02T03:17:52;96198.44;;;18.09;100.00
20015;BME280;61787;42.022;23.078;2023-07-02T03:18:53;96204.22;;;18.15;100.00
20015;BME280;61787;42.022;23.078;2023-07-02T03:19:55;96206.53;;;18.16;100.00
20015;BME280;61787;42.022;23.078;2023-07-02T03:20:57;96204.63;;;18.13;100.00
20015;BME280;61787;42.022;23.078;2023-07-02T03:21:59;96201.50;;;18.11;100.00
20015;BME280;61787;42.022;23.078;2023-07-02T03:23:00;96199.56;;;18.15;100.00
20015;BME280;61787;42.022;23.078;2023-07-02T03:24:02;96203.47;;;18.07;100.00
20015;BME280;61787;42.022;23.078;2023-07-02T03:25:04;96196.16;;;18.04;100.00
20015;BME280;61787;42.022;23.078;2023-07-02T03:26:06;96197.34;;;17.96;100.00
20015;BME280;61787;42.022;23.078;2023-07-02T03:27:07;96197.38;;;17.85;100.00
20015;BME280;61787;42.022;23.078;2023-07-02T03:28:09;96196.69;;;17.71;100.00
20015;BME280;61787;42.022;23.078;2023-07-02T03:29:11;96199.81;;;17.62;100.00
20015;BME280;61787;42.022;23.078;2023-07-02T03:30:13;96197.47;;;17.57;100.00
20015;BME280;61787;42.022;23.078;2023-07-02T03:31:15;96193.63;;;17.58;100.00
20015;BME280;61787;42.022;23.078;2023-07-02T03:32:17;96188.56;;;17.57;100.00
20015;BME280;61787;42.022;23.078;2023-07-02T03:33:18;96187.03;;;17.56;100.00
20015;BME280;61787;42.022;23.078;2023-07-02T03:34:20;96184.34;;;17.59;100.00
20015;BME280;61787;42.022;23.078;2023-07-02T03:35:23;96185.09;;;17.60;100.00
20015;BME280;61787;42.022;23.078;2023-07-02T03:36:25;96177.34;;;17.62;100.00
20015;BME280;61787;42.022;23.078;2023-07-02T03:37:27;96168.81;;;17.67;100.00
20015;BME280;61787;42.022;23.078;2023-07-02T03:38:28;96170.34;;;17.68;100.00
20015;BME280;61787;42.022;23.078;2023-07-02T03:39:30;96162.59;;;17.70;100.00
20015;BME280;61787;42.022;23.078;2023-07-02T03:40:32;96171.09;;;17.72;100.00
20015;BME280;61787;42.022;23.078;2023-07-02T03:41:33;96162.19;;;17.75;100.00
20015;BME280;61787;42.022;23.078;2023-07-02T03:42:35;96178.44;;;17.82;100.00
20015;BME280;61787;42.022;23.078;2023-07-02T03:43:36;96174.94;;;17.85;100.00
20015;BME280;61787;42.022;23.078;2023-07-02T03:44:38;96167.91;;;17.91;100.00
20015;BME280;61787;42.022;23.078;2023-07-02T03:45:40;96169.44;;;17.99;100.00
20015;BME280;61787;42.022;23.078;2023-07-02T03:46:42;96164.75;;;18.03;100.00
20015;BME280;61787;42.022;23.078;2023-07-02T03:47:45;96162.00;;;18.07;100.00
20015;BME280;61787;42.022;23.078;2023-07-02T03:48:46;96156.63;;;18.03;100.00
20015;BME280;61787;42.022;23.078;2023-07-02T03:49:48;96155.44;;;18.01;100.00
20015;BME280;61787;42.022;23.078;2023-07-02T03:50:50;96146.19;;;17.98;100.00
20015;BME280;61787;42.022;23.078;2023-07-02T03:51:51;96147.72;;;17.99;100.00
20015;BME280;61787;42.022;23.078;2023-07-02T03:52:54;96146.16;;;18.05;100.00
20015;BME280;61787;42.022;23.078;2023-07-02T03:53:55;96147.69;;;18.03;100.00
20015;BME280;61787;42.022;23.078;2023-07-02T03:54:57;96152.34;;;18.02;100.00
20015;BME280;61787;42.022;23.078;2023-07-02T03:55:59;96162.38;;;18.12;100.00
20015;BME280;61787;42.022;23.078;2023-07-02T03:57:00;96163.09;;;18.16;100.00
20015;BME280;61787;42.022;23.078;2023-07-02T03:58:02;96155.31;;;18.25;100.00
20015;BME280;61787;42.022;23.078;2023-07-02T03:59:03;96162.19;;;18.37;100.00
20015;BME280;61787;42.022;23.078;2023-07-02T04:00:06;96158.63;;;18.47;100.00
20015;BME280;61787;42.022;23.078;2023-07-02T04:01:09;96149.69;;;18.54;100.00
20015;BME280;61787;42.022;23.078;2023-07-02T04:02:10;96144.56;;;18.63;100.00
20015;BME280;61787;42.022;23.078;2023-07-02T04:03:12;96150.31;;;18.72;100.00
20015;BME280;61787;42.022;23.078;2023-07-02T04:04:14;96142.09;;;18.79;100.00
20015;BME280;61787;42.022;23.078;2023-07-02T04:05:16;96142.41;;;18.88;100.00
20015;BME280;61787;42.022;23.078;2023-07-02T04:06:18;96145.50;;;18.90;100.00
20015;BME280;61787;42.022;23.078;2023-07-02T04:07:19;96150.88;;;18.97;100.00
20015;BME280;61787;42.022;23.078;2023-07-02T04:08:21;96148.84;;;19.05;100.00
20015;BME280;61787;42.022;23.078;2023-07-02T04:09:23;96150.72;;;19.11;100.00
20015;BME280;61787;42.022;23.078;2023-07-02T04:10:25;96149.13;;;19.14;100.00
20015;BME280;61787;42.022;23.078;2023-07-02T04:11:26;96144.47;;;19.14;100.00
20015;BME280;61787;42.022;23.078;2023-07-02T04:12:28;96142.13;;;19.16;100.00
20015;BME280;61787;42.022;23.078;2023-07-02T04:13:30;96138.13;;;19.25;100.00
20015;BME280;61787;42.022;23.078;2023-07-02T04:14:31;96136.56;;;19.27;100.00
20015;BME280;61787;42.022;23.078;2023-07-02T04:15:34;96134.69;;;19.21;100.00
20015;BME280;61787;42.022;23.078;2023-07-02T04:16:36;96136.59;;;19.24;100.00
20015;BME280;61787;42.022;23.078;2023-07-02T04:17:38;96126.47;;;19.28;100.00
20015;BME280;61787;42.022;23.078;2023-07-02T04:18:39;96125.66;;;19.31;100.00
20015;BME280;61787;42.022;23.078;2023-07-02T04:19:41;96134.97;;;19.33;100.00
20015;BME280;61787;42.022;23.078;2023-07-02T04:20:43;96135.28;;;19.39;100.00
20015;BME280;61787;42.022;23.078;2023-07-02T04:21:44;96139.94;;;19.38;100.00
20015;BME280;61787;42.022;23.078;2023-07-02T04:22:46;96138.34;;;19.41;100.00
20015;BME280;61787;42.022;23.078;2023-07-02T04:23:48;96136.00;;;19.43;100.00
20015;BME280;61787;42.022;23.078;2023-07-02T04:24:50;96135.97;;;19.46;100.00
20015;BME280;61787;42.022;23.078;2023-07-02T04:25:55;96136.44;;;19.38;100.00
20015;BME280;61787;42.022;23.078;2023-07-02T04:27:17;96132.78;;;19.17;100.00
20015;BME280;61787;42.022;23.078;2023-07-02T04:28:38;96139.84;;;19.11;100.00
20015;BME280;61787;42.022;23.078;2023-07-02T04:29:40;96145.63;;;19.13;100.00
20015;BME280;61787;42.022;23.078;2023-07-02T04:30:42;96145.19;;;19.18;100.00
20015;BME280;61787;42.022;23.078;2023-07-02T04:31:43;96140.56;;;19.15;100.00
20015;BME280;61787;42.022;23.078;2023-07-02T04:32:45;96140.94;;;19.17;100.00
20015;BME280;61787;42.022;23.078;2023-07-02T04:33:48;96139.75;;;19.22;100.00
20015;BME280;61787;42.022;23.078;2023-07-02T04:34:50;96134.28;;;19.22;100.00
20015;BME280;61787;42.022;23.078;2023-07-02T04:35:51;96141.19;;;19.30;100.00
20015;BME280;61787;42.022;23.078;2023-07-02T04:36:53;96136.91;;;19.33;100.00
20015;BME280;61787;42.022;23.078;2023-07-02T04:37:55;96139.56;;;19.36;100.00
20015;BME280;61787;42.022;23.078;2023-07-02T04:38:57;96126.69;;;19.40;100.00
20015;BME280;61787;42.022;23.078;2023-07-02T04:39:58;96134.03;;;19.47;100.00
20015;BME280;61787;42.022;23.078;2023-07-02T04:41:00;96137.13;;;19.49;100.00
20015;BME280;61787;42.022;23.078;2023-07-02T04:42:07;96125.81;;;19.54;100.00
20015;BME280;61787;42.022;23.078;2023-07-02T04:43:09;96122.19;;;19.61;100.00
20015;BME280;61787;42.022;23.078;2023-07-02T04:44:11;96120.63;;;19.63;100.00
20015;BME280;61787;42.022;23.078;2023-07-02T04:45:14;96118.63;;;19.67;100.00
20015;BME280;61787;42.022;23.078;2023-07-02T04:46:19;96121.34;;;19.67;100.00
20015;BME280;61787;42.022;23.078;2023-07-02T04:47:21;96124.44;;;19.69;100.00
20015;BME280;61787;42.022;23.078;2023-07-02T04:48:22;96127.63;;;19.64;100.00
20015;BME280;61787;42.022;23.078;2023-07-02T04:49:24;96124.16;;;19.60;100.00
20015;BME280;61787;42.022;23.078;2023-07-02T04:50:26;96121.44;;;19.60;100.00
20015;BME280;61787;42.022;23.078;2023-07-02T04:51:28;96131.13;;;19.61;100.00
20015;BME280;61787;42.022;23.078;2023-07-02T04:52:29;96129.13;;;19.65;100.00
20015;BME280;61787;42.022;23.078;2023-07-02T04:53:31;96122.06;;;19.71;100.00
20015;BME280;61787;42.022;23.078;2023-07-02T04:54:33;96125.09;;;19.77;100.00
20015;BME280;61787;42.022;23.078;2023-07-02T04:55:34;96118.81;;;19.83;100.00
20015;BME280;61787;42.022;23.078;2023-07-02T04:56:36;96121.53;;;19.83;100.00
20015;BME280;61787;42.022;23.078;2023-07-02T04:57:37;96121.13;;;19.85;100.00
20015;BME280;61787;42.022;23.078;2023-07-02T04:58:39;96115.63;;;19.88;100.00
20015;BME280;61787;42.022;23.078;2023-07-02T04:59:41;96119.06;;;19.92;100.00
20015;BME280;61787;42.022;23.078;2023-07-02T05:00:43;96124.41;;;19.99;100.00
20015;BME280;61787;42.022;23.078;2023-07-02T05:01:44;96119.69;;;20.04;100.00
20015;BME280;61787;42.022;23.078;2023-07-02T05:02:46;96124.75;;;20.01;100.00
20015;BME280;61787;42.022;23.078;2023-07-02T05:03:48;96117.38;;;20.02;100.00
20015;BME280;61787;42.022;23.078;2023-07-02T05:04:50;96123.13;;;20.08;100.00
20015;BME280;61787;42.022;23.078;2023-07-02T05:05:52;96129.66;;;20.14;100.00
20015;BME280;61787;42.022;23.078;2023-07-02T05:06:56;96125.28;;;20.20;100.00
20015;BME280;61787;42.022;23.078;2023-07-02T05:07:58;96135.72;;;20.25;100.00
20015;BME280;61787;42.022;23.078;2023-07-02T05:09:00;96134.88;;;20.28;100.00
20015;BME280;61787;42.022;23.078;2023-07-02T05:10:01;96136.81;;;20.31;100.00
20015;BME280;61787;42.022;23.078;2023-07-02T05:11:06;96139.06;;;20.36;100.00
20015;BME280;61787;42.022;23.078;2023-07-02T05:12:09;96135.03;;;20.44;100.00
20015;BME280;61787;42.022;23.078;2023-07-02T05:13:10;96134.94;;;20.51;100.00
20015;BME280;61787;42.022;23.078;2023-07-02T05:14:12;96130.19;;;20.55;100.00
20015;BME280;61787;42.022;23.078;2023-07-02T05:15:14;96140.97;;;20.62;100.00
20015;BME280;61787;42.022;23.078;2023-07-02T05:16:16;96140.16;;;20.65;100.00
20015;BME280;61787;42.022;23.078;2023-07-02T05:17:18;96143.66;;;20.66;100.00
20015;BME280;61787;42.022;23.078;2023-07-02T05:18:20;96134.72;;;20.65;100.00
20015;BME280;61787;42.022;23.078;2023-07-02T05:19:21;96142.97;;;20.58;100.00
20015;BME280;61787;42.022;23.078;2023-07-02T05:20:23;96138.44;;;20.52;100.00
20015;BME280;61787;42.022;23.078;2023-07-02T05:21:24;96134.50;;;20.53;100.00